Oconto, WI

2:57 AM CST on December 06, 2019 (GMT -0600)
Oconto Municipal

Weather History for KOCQ - October, 2019

Change the Weather History Date:

Saturday, October 5, 2019

  Actual Average Record
Temperature  
Mean Temperature 51 °F -  
Max Temperature 55 °F 62 °F 70 °F (2016)
Min Temperature 48 °F 37 °F 32 °F (2014)
Degree Days  
Heating Degree Days 14    
Growing Degree Days 1 (Base 50)    
Moisture  
Dew Point 47 °F    
Average Humidity 86    
Maximum Humidity 98    
Minimum Humidity 71    
Precipitation  
Precipitation 0.25 in - - ()
Sea Level Pressure  
Sea Level Pressure 30.05 in    
Wind  
Wind Speed 9 mph (SSE)    
Max Wind Speed 17 mph    
Max Gust Speed 25 mph    
Visibility 9 miles    
Events      
Averages and records for this station are not official NWS values.
T = Trace of Precipitation, MM = Missing Value Source: NWS Daily Summary

Daily Weather History Graph

Daily Weather History Graph

Search for Another Location

Airport or City:

Astronomy

Oct. 05, 2019 Rise Set
Actual Time 6:54 AM CDT 6:25 PM CDT
Civil Twilight 6:25 AM CDT 6:54 PM CDT
Nautical Twilight 5:51 AM CDT 7:28 PM CDT
Astronomical Twilight 5:16 AM CDT 8:02 PM CDT
Moon 2:34 PM CDT (10/5) 11:33 PM CDT (10/5)
Length of Visible Light 12h 29m
Length of Day
11h 30m
Waxing Crescent, 50% of the Moon is Illuminated
Oct 5
Waxing Crescent
Oct 13
Full
Oct 21
Last Quarter
Oct 27
New
Nov 4
First Quarter

Hourly Weather History & Observations

Time (CDT) Temp. Dew Point Humidity Pressure Visibility Wind Dir Wind Speed Gust Speed Precip Events Conditions
12:15 AM 50.0 °F 42.8 °F 76% 30.36 in 10.0 mi SSE 5.8 mph - N/A   Overcast
12:35 AM 50.0 °F 42.3 °F 75% 30.35 in 10.0 mi SSE 5.8 mph - N/A   Overcast
12:55 AM 49.3 °F 41.9 °F 76% 30.34 in 10.0 mi SSE 4.6 mph - N/A   Overcast
1:15 AM 49.5 °F 41.7 °F 75% 30.34 in 10.0 mi SE 5.8 mph - N/A   Overcast
1:35 AM 49.8 °F 41.9 °F 74% 30.32 in 10.0 mi ESE 8.1 mph - N/A   Overcast
1:55 AM 48.7 °F 41.9 °F 77% 30.33 in 10.0 mi SE 5.8 mph - N/A   Mostly Cloudy
2:15 AM 48.4 °F 41.9 °F 78% 30.33 in 10.0 mi SE 4.6 mph - N/A   Scattered Clouds
2:35 AM 49.5 °F 41.7 °F 75% 30.31 in 10.0 mi SE 9.2 mph - N/A   Overcast
2:55 AM 49.1 °F 41.4 °F 75% 30.31 in 10.0 mi SE 8.1 mph - N/A   Mostly Cloudy
3:15 AM 49.1 °F 41.7 °F 76% 30.29 in 10.0 mi ESE 9.2 mph - N/A   Scattered Clouds
3:35 AM 48.9 °F 41.4 °F 75% 30.28 in 10.0 mi SE 9.2 mph - N/A   Scattered Clouds
3:55 AM 49.1 °F 41.4 °F 75% 30.27 in 10.0 mi SE 9.2 mph - N/A   Mostly Cloudy
4:15 AM 49.8 °F 41.0 °F 72% 30.27 in 10.0 mi SE 10.4 mph 16.1 mph N/A   Overcast
4:35 AM 50.0 °F 41.5 °F 73% 30.26 in 10.0 mi SE 10.4 mph - N/A   Overcast
4:55 AM 50.2 °F 41.0 °F 71% 30.26 in 10.0 mi SE 9.2 mph - N/A   Overcast
5:15 AM 50.0 °F 41.4 °F 72% 30.25 in 10.0 mi SE 8.1 mph - N/A   Overcast
5:35 AM 50.0 °F 42.6 °F 76% 30.24 in 10.0 mi SE 10.4 mph - N/A   Overcast
5:55 AM 50.0 °F 41.9 °F 74% 30.24 in 10.0 mi SE 10.4 mph - N/A   Overcast
6:15 AM 50.2 °F 41.7 °F 73% 30.24 in 10.0 mi SE 5.8 mph - N/A   Overcast
6:35 AM 50.0 °F 42.4 °F 75% 30.23 in 10.0 mi SE 8.1 mph - N/A   Overcast
6:55 AM 50.0 °F 42.8 °F 76% 30.22 in 10.0 mi SE 11.5 mph - N/A   Overcast
7:15 AM 49.5 °F 43.5 °F 80% 30.22 in 10.0 mi SE 11.5 mph 16.1 mph N/A   Overcast
7:35 AM 49.5 °F 43.7 °F 81% 30.22 in 10.0 mi SE 9.2 mph - N/A   Overcast
7:55 AM 49.5 °F 44.1 °F 82% 30.21 in 10.0 mi SE 11.5 mph 16.1 mph N/A   Overcast
8:15 AM 49.8 °F 44.2 °F 81% 30.20 in 10.0 mi SE 11.5 mph 16.1 mph N/A   Overcast
8:35 AM 50.0 °F 44.6 °F 82% 30.18 in 10.0 mi SE 10.4 mph 19.6 mph N/A   Overcast
8:55 AM 50.2 °F 44.8 °F 82% 30.17 in 10.0 mi SE 11.5 mph 16.1 mph N/A   Overcast
9:15 AM 50.4 °F 44.6 °F 81% 30.15 in 10.0 mi SE 11.5 mph 17.3 mph N/A   Overcast
9:35 AM 50.5 °F 44.8 °F 81% 30.14 in 10.0 mi SE 11.5 mph 18.4 mph N/A   Overcast
9:55 AM 50.5 °F 44.8 °F 81% 30.14 in 10.0 mi SE 12.7 mph 20.7 mph N/A   Overcast
10:15 AM 50.5 °F 44.8 °F 81% 30.13 in 10.0 mi SE 12.7 mph 19.6 mph N/A   Overcast
10:35 AM 50.9 °F 45.3 °F 81% 30.12 in 10.0 mi SE 9.2 mph 17.3 mph N/A   Overcast
10:55 AM 50.9 °F 45.9 °F 83% 30.11 in 10.0 mi SE 11.5 mph 19.6 mph N/A   Overcast
11:15 AM 50.9 °F 46.6 °F 85% 30.10 in 10.0 mi SE 11.5 mph 18.4 mph N/A   Overcast
11:35 AM 50.9 °F 47.3 °F 87% 30.09 in 10.0 mi SE 10.4 mph - N/A   Overcast
11:55 AM 50.9 °F 47.7 °F 89% 30.11 in 10.0 mi SSE 6.9 mph - N/A   Overcast
12:15 PM 51.3 °F 48.0 °F 89% 30.11 in 10.0 mi SSE 5.8 mph - N/A   Overcast
12:35 PM 51.3 °F 48.6 °F 90% 30.09 in 10.0 mi SSE 4.6 mph - N/A   Overcast
12:55 PM 51.3 °F 48.7 °F 91% 30.06 in 10.0 mi SSE 5.8 mph - N/A   Overcast
1:15 PM 51.3 °F 49.1 °F 92% 30.05 in 10.0 mi SSE 9.2 mph - N/A   Overcast
1:35 PM 51.4 °F 49.1 °F 92% 30.04 in 10.0 mi SSE 8.1 mph - N/A   Overcast
1:55 PM 51.8 °F 48.9 °F 90% 30.03 in 10.0 mi SSE 8.1 mph - 0.01 in   Overcast
2:15 PM 51.4 °F 49.3 °F 92% 30.02 in 7.0 mi SSE 9.2 mph - 0.02 in   Overcast
2:35 PM 51.3 °F 49.5 °F 94% 29.99 in 7.0 mi SSE 10.4 mph 17.3 mph 0.06 in   Overcast
2:55 PM 51.3 °F 49.8 °F 95% 29.96 in 5.0 mi SSE 10.4 mph - 0.10 in   Overcast
3:15 PM 51.6 °F 50.2 °F 95% 29.93 in 7.0 mi SSE 11.5 mph 17.3 mph 0.03 in   Overcast
3:35 PM 52.0 °F 50.5 °F 95% 29.91 in 10.0 mi SSE 11.5 mph 23.0 mph 0.04 in   Overcast
3:55 PM 52.3 °F 50.4 °F 93% 29.91 in 10.0 mi SSE 11.5 mph 20.7 mph 0.04 in   Overcast
4:15 PM 52.2 °F 50.2 °F 93% 29.90 in 10.0 mi SSE 15.0 mph 20.7 mph N/A   Overcast
4:35 PM 52.0 °F 49.3 °F 90% 29.87 in 10.0 mi SSE 17.3 mph 25.3 mph N/A   Overcast
4:55 PM 52.0 °F 49.5 °F 91% 29.88 in 10.0 mi SSE 10.4 mph 17.3 mph N/A   Overcast
5:15 PM 52.3 °F 50.0 °F 92% 29.87 in 10.0 mi South 11.5 mph 18.4 mph N/A   Overcast
5:35 PM 52.7 °F 49.1 °F 88% 29.85 in 10.0 mi SSE 10.4 mph 17.3 mph N/A   Overcast
5:55 PM 52.3 °F 50.0 °F 92% 29.84 in 10.0 mi SSE 11.5 mph 19.6 mph N/A   Overcast
6:15 PM 52.9 °F 50.2 °F 91% 29.85 in 10.0 mi South 11.5 mph 18.4 mph N/A   Overcast
6:35 PM 53.1 °F 50.2 °F 90% 29.84 in 10.0 mi South 9.2 mph 16.1 mph N/A   Overcast
6:55 PM 52.9 °F 50.9 °F 93% 29.84 in 7.0 mi South 10.4 mph - 0.02 in   Overcast
7:15 PM 52.5 °F 51.3 °F 95% 29.83 in 5.0 mi South 8.1 mph - 0.03 in   Overcast
7:35 PM 52.3 °F 51.8 °F 98% 29.83 in 5.0 mi South 8.1 mph - 0.07 in   Overcast
7:55 PM 52.3 °F 51.8 °F 98% 29.82 in 4.0 mi South 8.1 mph - 0.07 in   Overcast
8:15 PM 52.3 °F 51.8 °F 98% 29.81 in 5.0 mi South 6.9 mph - 0.01 in   Overcast
8:35 PM 52.7 °F 51.4 °F 95% 29.80 in 5.0 mi South 9.2 mph 17.3 mph 0.01 in   Overcast
8:55 PM 52.7 °F 51.8 °F 97% 29.79 in 4.0 mi South 12.7 mph 17.3 mph 0.01 in   Overcast
9:15 PM 52.7 °F 51.8 °F 97% 29.79 in 4.0 mi South 10.4 mph - N/A   Overcast
9:35 PM 52.7 °F 51.8 °F 97% 29.78 in 4.0 mi South 9.2 mph - N/A   Overcast
9:55 PM 52.7 °F 51.8 °F 97% 29.77 in 7.0 mi South 8.1 mph 21.9 mph N/A   Overcast
10:15 PM 52.9 °F 52.0 °F 97% 29.76 in 10.0 mi SSW 8.1 mph - N/A   Overcast
10:35 PM 53.6 °F 52.2 °F 95% 29.76 in 10.0 mi South 8.1 mph - N/A   Overcast
10:55 PM 53.8 °F 52.7 °F 96% 29.76 in 10.0 mi SW 8.1 mph - N/A   Overcast
11:15 PM 54.5 °F 52.7 °F 94% 29.76 in 10.0 mi SW 6.9 mph - N/A   Overcast
11:35 PM 54.7 °F 52.9 °F 94% 29.75 in 10.0 mi SW 9.2 mph - N/A   Overcast
11:55 PM 54.9 °F 52.9 °F 93% 29.75 in 10.0 mi SW 9.2 mph - N/A   Overcast